Time;durP1;ratioP1;P1;durP2;ratioP2;P2;SDS_P1;SDS_P2;PMS_P1;PMS_P2;Temp;Humidity;BMP_temperature;BMP_pressure;BME280_temperature;BME280_humidity;BME280_pressure;Samples;Min_cycle;Max_cycle;Signal;HPM_P1;HPM_P2
2022/01/20 05:15:32;;;;;;;3.92;2.08;;;3.60;99.90;;;;;;5337469;23;20049;-79
2022/01/20 05:17:59;;;;;;;4.25;2.00;;;3.60;99.90;;;;;;4899558;29;20076;-79
2022/01/20 05:20:27;;;;;;;3.60;2.10;;;3.60;99.90;;;;;;4899268;29;20049;-78
2022/01/20 05:22:54;;;;;;;3.15;1.52;;;3.60;99.90;;;;;;4899434;29;20148;-78
2022/01/20 05:25:21;;;;;;;3.85;1.85;;;3.60;99.90;;;;;;4899250;29;20466;-79
2022/01/20 05:27:49;;;;;;;3.30;1.80;;;3.60;99.90;;;;;;4894066;29;20148;-77
2022/01/20 05:30:16;;;;;;;3.42;1.85;;;3.60;99.90;;;;;;4900120;29;20131;-80
2022/01/20 05:32:44;;;;;;;4.28;1.95;;;3.60;99.90;;;;;;4900049;29;20136;-79
2022/01/20 05:35:11;;;;;;;3.45;1.77;;;3.60;99.90;;;;;;4900080;29;20139;-79
2022/01/20 05:37:38;;;;;;;4.18;2.00;;;3.60;99.90;;;;;;4899684;29;20139;-78
2022/01/20 05:40:08;;;;;;;3.67;1.88;;;3.60;99.90;;;;;;4899941;29;20064;-79
2022/01/20 05:42:36;;;;;;;3.20;1.60;;;3.60;99.90;;;;;;4899890;29;20063;-80
2022/01/20 05:45:06;;;;;;;3.65;1.85;;;3.60;99.90;;;;;;4899496;29;20402;-79
2022/01/20 05:47:37;;;;;;;3.90;1.90;;;3.60;99.90;;;;;;4899710;29;20044;-79
2022/01/20 05:50:06;;;;;;;4.13;1.65;;;3.60;99.90;;;;;;4899568;29;20052;-79
2022/01/20 05:52:36;;;;;;;4.13;1.60;;;3.60;99.90;;;;;;4899463;29;20139;-79
2022/01/20 05:55:03;;;;;;;3.53;1.60;;;3.60;99.90;;;;;;4899721;29;20044;-78
2022/01/20 05:57:30;;;;;;;2.67;1.48;;;3.60;99.90;;;;;;4899279;29;20136;-78
2022/01/20 05:59:57;;;;;;;3.17;1.60;;;3.60;99.90;;;;;;4899543;29;20045;-80
2022/01/20 06:02:34;;;;;;;3.97;1.50;;;3.50;99.90;;;;;;4897922;29;20561;-78
2022/01/20 06:05:01;;;;;;;3.65;1.70;;;3.50;99.90;;;;;;4899313;29;20053;-78
2022/01/20 06:07:29;;;;;;;3.42;1.63;;;3.50;99.90;;;;;;4899354;29;20172;-79
2022/01/20 06:09:56;;;;;;;2.90;1.50;;;3.50;99.90;;;;;;4899397;29;20139;-79
2022/01/20 06:12:27;;;;;;;3.00;1.40;;;3.50;99.90;;;;;;4898002;29;20140;-77
2022/01/20 06:14:58;;;;;;;3.00;1.40;;;3.50;99.90;;;;;;4898978;29;20056;-81
2022/01/20 06:17:28;;;;;;;3.08;1.40;;;3.50;99.90;;;;;;4896486;29;20057;-79
2022/01/20 06:19:55;;;;;;;2.90;1.30;;;3.50;99.90;;;;;;4899240;29;20060;-79
2022/01/20 06:22:22;;;;;;;2.83;1.40;;;3.50;99.90;;;;;;4899109;29;20048;-79
2022/01/20 06:24:50;;;;;;;3.33;1.52;;;3.50;99.90;;;;;;4897949;29;20052;-79
2022/01/20 06:27:18;;;;;;;3.95;1.50;;;3.60;99.90;;;;;;4898673;29;20131;-78
2022/01/20 06:29:46;;;;;;;2.85;1.38;;;3.50;99.90;;;;;;4898698;29;20151;-78
2022/01/20 06:32:13;;;;;;;3.85;1.60;;;3.60;99.90;;;;;;4898766;29;20083;-78
2022/01/20 06:34:40;;;;;;;2.97;1.55;;;3.60;99.90;;;;;;4898687;29;20136;-79
2022/01/20 06:37:07;;;;;;;3.25;1.33;;;3.50;99.90;;;;;;4898948;29;20063;-78
2022/01/20 06:39:34;;;;;;;2.78;1.30;;;3.60;99.90;;;;;;4897944;29;20052;-78
2022/01/20 06:42:03;;;;;;;3.10;1.38;;;3.50;99.90;;;;;;4898792;29;20143;-78
2022/01/20 06:44:30;;;;;;;2.83;1.35;;;3.50;99.90;;;;;;4898376;29;20136;-78
2022/01/20 06:46:57;;;;;;;3.03;1.02;;;3.50;99.90;;;;;;4897757;29;20041;-78
2022/01/20 06:49:24;;;;;;;2.60;1.23;;;3.50;99.90;;;;;;4898668;29;20131;-78
2022/01/20 06:51:51;;;;;;;2.85;1.30;;;3.40;99.90;;;;;;4898633;29;20136;-78
2022/01/20 06:54:18;;;;;;;3.33;1.23;;;3.50;99.90;;;;;;4898610;29;20080;-79
2022/01/20 06:56:46;;;;;;;3.22;1.20;;;3.50;99.90;;;;;;4898609;29;20238;-79
2022/01/20 06:59:16;;;;;;;2.33;1.10;;;3.50;99.90;;;;;;4898248;29;20052;-78
2022/01/20 07:01:45;;;;;;;2.42;1.20;;;3.50;99.90;;;;;;4898529;29;20052;-80
2022/01/20 07:04:13;;;;;;;3.58;1.35;;;3.50;99.90;;;;;;4898263;29;20554;-80
2022/01/20 07:06:41;;;;;;;2.83;1.25;;;3.40;99.90;;;;;;4898338;29;20493;-78
2022/01/20 07:09:10;;;;;;;3.08;1.30;;;3.50;99.90;;;;;;4898251;29;20083;-79
2022/01/20 07:11:38;;;;;;;2.35;1.10;;;3.40;99.90;;;;;;4898152;29;20044;-78
2022/01/20 07:14:06;;;;;;;2.50;1.13;;;3.40;99.90;;;;;;4898182;29;20135;-79
2022/01/20 07:16:35;;;;;;;2.53;1.10;;;3.40;99.90;;;;;;4898449;29;20143;-79
2022/01/20 07:19:02;;;;;;;3.22;1.42;;;3.40;99.90;;;;;;4897951;29;20490;-79
2022/01/20 07:21:29;;;;;;;2.45;1.20;;;3.40;99.90;;;;;;4898143;29;20131;-79
2022/01/20 07:23:56;;;;;;;3.13;1.48;;;3.40;99.90;;;;;;4897808;29;20135;-80
2022/01/20 07:26:23;;;;;;;2.53;1.08;;;3.40;99.90;;;;;;4898040;29;20125;-80
2022/01/20 07:28:50;;;;;;;2.97;1.00;;;3.40;99.90;;;;;;4898003;29;20056;-80
2022/01/20 07:31:22;;;;;;;2.75;1.10;;;3.40;99.90;;;;;;4897937;29;20139;-80
2022/01/20 07:33:50;;;;;;;2.63;1.25;;;3.40;99.90;;;;;;4897873;29;20505;-78
2022/01/20 07:36:18;;;;;;;2.40;1.17;;;3.40;99.90;;;;;;4897878;29;20080;-80
2022/01/20 07:38:45;;;;;;;2.60;1.20;;;3.40;99.90;;;;;;4897666;29;20147;-79
2022/01/20 07:41:12;;;;;;;2.53;1.20;;;3.40;99.90;;;;;;4897996;29;20131;-80
2022/01/20 07:43:40;;;;;;;2.75;1.30;;;3.40;99.90;;;;;;4897805;29;20483;-79
2022/01/20 07:46:07;;;;;;;3.50;1.30;;;3.50;99.90;;;;;;4897860;29;20139;-80
2022/01/20 07:48:35;;;;;;;3.50;1.35;;;3.50;99.90;;;;;;4897848;29;20135;-80
2022/01/20 07:51:05;;;;;;;2.85;1.33;;;3.50;99.90;;;;;;4899139;29;20140;-80
2022/01/20 07:53:33;;;;;;;2.50;1.30;;;3.50;99.90;;;;;;4901789;29;20135;-78
2022/01/20 07:56:00;;;;;;;3.63;1.50;;;3.50;99.90;;;;;;4901718;29;20049;-78
2022/01/20 07:58:27;;;;;;;3.35;1.48;;;3.50;99.90;;;;;;4901546;29;20128;-80
2022/01/20 08:00:54;;;;;;;3.00;1.60;;;3.50;99.90;;;;;;4901745;29;20132;-80
2022/01/20 08:03:21;;;;;;;3.35;1.58;;;3.50;99.90;;;;;;4901492;29;20131;-79
2022/01/20 08:05:49;;;;;;;2.90;1.50;;;3.50;99.90;;;;;;4901778;29;20139;-79
2022/01/20 08:08:17;;;;;;;3.30;1.80;;;3.50;99.90;;;;;;4901578;29;20083;-79
2022/01/20 08:10:44;;;;;;;3.28;1.70;;;3.50;99.90;;;;;;4901437;29;20131;-79
2022/01/20 08:13:11;;;;;;;3.38;1.52;;;3.50;99.90;;;;;;4901498;29;20185;-79
2022/01/20 08:15:38;;;;;;;3.95;1.52;;;3.50;99.90;;;;;;4901160;29;20063;-79
2022/01/20 08:18:06;;;;;;;4.35;1.80;;;3.50;99.90;;;;;;4901248;29;20169;-79
2022/01/20 08:20:34;;;;;;;4.72;1.80;;;3.50;99.90;;;;;;4901248;29;20064;-79
2022/01/20 08:23:01;;;;;;;3.70;1.70;;;3.50;99.90;;;;;;4901296;29;20059;-79
2022/01/20 08:25:30;;;;;;;3.20;1.80;;;3.50;99.90;;;;;;4901189;29;20135;-79
2022/01/20 08:27:57;;;;;;;4.07;1.70;;;3.50;99.90;;;;;;4901189;29;20127;-78
2022/01/20 08:30:25;;;;;;;4.40;1.85;;;3.50;99.90;;;;;;4899382;29;20044;-79
2022/01/20 08:32:53;;;;;;;3.80;1.77;;;3.50;99.90;;;;;;4900496;29;20139;-80
2022/01/20 08:35:23;;;;;;;3.60;1.58;;;3.50;99.90;;;;;;4884649;29;20131;-79
2022/01/20 08:37:51;;;;;;;4.00;1.85;;;3.60;99.90;;;;;;4901086;29;20403;-79
2022/01/20 08:40:22;;;;;;;5.63;2.00;;;3.60;99.90;;;;;;4900757;29;20388;-79
2022/01/20 08:42:52;;;;;;;4.03;1.77;;;3.60;99.90;;;;;;4900929;29;20052;-79
2022/01/20 08:45:22;;;;;;;4.25;1.70;;;3.70;99.90;;;;;;4900801;29;20105;-79
2022/01/20 08:47:52;;;;;;;4.10;2.10;;;3.70;99.90;;;;;;4901168;29;20463;-78
2022/01/20 08:50:20;;;;;;;4.88;2.00;;;3.70;99.90;;;;;;4900784;29;20139;-80
2022/01/20 08:52:48;;;;;;;3.90;2.03;;;3.70;99.90;;;;;;4900718;29;20139;-79
2022/01/20 08:55:16;;;;;;;3.70;2.10;;;3.80;99.90;;;;;;4900570;29;20565;-78
2022/01/20 08:57:43;;;;;;;4.45;2.00;;;3.80;99.90;;;;;;4900590;29;20487;-80
2022/01/20 09:00:15;;;;;;;4.03;2.00;;;3.80;99.90;;;;;;4900449;29;20053;-78
2022/01/20 09:02:42;;;;;;;5.28;2.15;;;3.80;99.90;;;;;;4899936;29;20488;-77
2022/01/20 09:05:10;;;;;;;7.15;2.17;;;3.90;99.90;;;;;;4900424;29;20156;-78
2022/01/20 09:07:38;;;;;;;4.30;2.10;;;3.90;99.90;;;;;;4900302;29;20140;-78
2022/01/20 09:10:07;;;;;;;4.32;2.33;;;3.90;99.90;;;;;;4900263;29;20048;-79
2022/01/20 09:15:31;;;;;;;5.05;2.50;;;3.90;99.90;;;;;;4919263;29;20070;-79
2022/01/20 09:18:01;;;;;;;6.28;2.40;;;3.90;99.90;;;;;;4919112;29;20443;-78
2022/01/20 09:20:29;;;;;;;4.65;2.20;;;3.90;99.90;;;;;;4917847;29;20620;-78
2022/01/20 09:22:57;;;;;;;5.95;2.58;;;3.90;99.90;;;;;;4919547;29;20148;-79
2022/01/20 09:25:25;;;;;;;6.15;2.80;;;3.90;99.90;;;;;;4919156;29;20416;-79
2022/01/20 09:27:55;;;;;;;4.32;2.47;;;3.90;99.90;;;;;;4901176;29;20052;-79
2022/01/20 09:30:25;;;;;;;5.25;2.35;;;4.00;99.90;;;;;;4918846;29;20059;-79
2022/01/20 09:33:00;;;;;;;4.45;2.60;;;4.00;99.90;;;;;;4918822;29;20052;-79
2022/01/20 09:35:31;;;;;;;5.50;2.70;;;4.00;99.90;;;;;;4918817;29;20063;-79
2022/01/20 09:37:59;;;;;;;5.53;2.78;;;4.00;99.90;;;;;;4919141;29;20481;-79
2022/01/20 09:40:30;;;;;;;4.85;2.58;;;4.00;99.90;;;;;;4918842;29;20143;-79
2022/01/20 09:42:57;;;;;;;6.20;3.00;;;4.10;99.90;;;;;;4918899;29;20132;-79
2022/01/20 09:45:26;;;;;;;4.90;2.90;;;4.10;99.90;;;;;;4918715;29;20079;-80
2022/01/20 09:47:54;;;;;;;5.75;3.00;;;4.20;99.90;;;;;;4906602;29;20087;-79
2022/01/20 09:50:23;;;;;;;7.80;3.25;;;4.20;99.90;;;;;;4899363;29;20084;-79
2022/01/20 09:52:52;;;;;;;4.78;2.50;;;4.20;99.90;;;;;;4899954;29;20124;-79
2022/01/20 09:55:20;;;;;;;7.10;3.05;;;4.20;99.90;;;;;;4899806;29;20471;-78
2022/01/20 09:57:47;;;;;;;6.70;2.65;;;4.30;99.90;;;;;;4899625;29;20048;-78
2022/01/20 10:00:18;;;;;;;6.28;2.78;;;4.30;99.90;;;;;;4899365;29;20506;-78
2022/01/20 10:03:10;;;;;;;7.30;3.05;;;4.30;99.90;;;;;;4899433;29;20127;-78
2022/01/20 10:05:41;;;;;;;9.50;3.33;;;4.40;99.90;;;;;;4896314;29;20053;-79
2022/01/20 10:08:13;;;;;;;6.30;2.78;;;4.40;99.90;;;;;;4899113;29;20554;-78
2022/01/20 10:10:47;;;;;;;7.03;2.83;;;4.40;99.90;;;;;;4899598;29;20056;-78
2022/01/20 10:13:16;;;;;;;6.23;2.53;;;4.40;99.90;;;;;;4899198;29;20139;-78
2022/01/20 10:15:55;;;;;;;7.95;2.50;;;4.50;99.90;;;;;;4898077;29;20388;-78
2022/01/20 10:18:24;;;;;;;6.10;2.35;;;4.50;99.90;;;;;;4899261;29;20135;-78
2022/01/20 10:20:54;;;;;;;6.80;2.53;;;4.50;99.90;;;;;;4898893;29;20139;-79
2022/01/20 10:23:39;;;;;;;7.22;2.97;;;4.60;99.90;;;;;;4899287;29;20571;-81
2022/01/20 10:26:11;;;;;;;5.50;2.70;;;4.60;99.90;;;;;;4899371;29;20135;-79
2022/01/20 10:28:51;;;;;;;7.82;2.65;;;4.60;99.90;;;;;;4899167;29;20059;-79
2022/01/20 10:31:31;;;;;;;5.97;2.78;;;4.70;99.90;;;;;;4881890;29;20120;-79
2022/01/20 10:34:00;;;;;;;7.07;2.70;;;4.70;99.90;;;;;;4898837;29;20135;-78
2022/01/20 10:36:27;;;;;;;9.45;2.80;;;4.80;99.90;;;;;;4898559;29;20084;-79
2022/01/20 10:38:58;;;;;;;8.98;2.90;;;4.80;99.90;;;;;;4898501;29;20087;-80
2022/01/20 10:41:34;;;;;;;9.73;2.63;;;4.80;99.90;;;;;;4897288;29;20051;-79
2022/01/20 10:44:10;;;;;;;6.50;2.60;;;4.80;99.90;;;;;;4898379;29;20469;-81
2022/01/20 10:46:47;;;;;;;7.25;2.60;;;4.70;99.90;;;;;;4898193;29;20124;-80
2022/01/20 10:49:16;;;;;;;8.07;2.97;;;4.70;99.90;;;;;;4898715;29;20049;-80
2022/01/20 10:51:44;;;;;;;7.75;2.50;;;4.70;99.90;;;;;;4898357;29;20143;-79
2022/01/20 10:54:14;;;;;;;9.00;2.28;;;4.70;99.90;;;;;;4898335;29;20485;-81
2022/01/20 10:56:49;;;;;;;6.82;2.22;;;4.70;99.90;;;;;;4899806;29;20056;-80
2022/01/20 10:59:16;;;;;;;9.95;2.65;;;4.70;99.90;;;;;;4900446;29;20148;-80
2022/01/20 11:01:44;;;;;;;6.40;2.63;;;4.70;99.90;;;;;;4899525;29;20136;-79
2022/01/20 11:04:11;;;;;;;7.20;2.20;;;4.70;99.90;;;;;;4898867;29;20644;-81
2022/01/20 11:06:40;;;;;;;8.02;2.15;;;4.80;99.90;;;;;;4897954;29;20066;-79
2022/01/20 11:09:09;;;;;;;6.20;2.20;;;4.80;99.90;;;;;;4898327;29;20108;-79
2022/01/20 11:11:36;;;;;;;9.77;2.17;;;4.80;99.90;;;;;;4898014;29;20112;-82
2022/01/20 11:14:04;;;;;;;9.38;2.40;;;4.90;99.90;;;;;;4898035;29;20131;-79
2022/01/20 11:16:39;;;;;;;9.05;2.30;;;4.90;99.90;;;;;;4898153;29;20147;-79
2022/01/20 11:19:16;;;;;;;6.35;2.25;;;5.00;99.90;;;;;;4897975;29;20095;-80
2022/01/20 11:21:45;;;;;;;8.35;2.45;;;5.00;99.90;;;;;;4898347;29;20052;-80
2022/01/20 11:24:21;;;;;;;8.07;2.10;;;5.00;99.90;;;;;;4898101;29;20084;-80
2022/01/20 11:26:54;;;;;;;10.02;2.15;;;5.00;99.90;;;;;;4897727;29;20455;-81
2022/01/20 11:29:22;;;;;;;7.55;2.60;;;5.00;99.90;;;;;;4898111;29;20136;-79
2022/01/20 11:31:50;;;;;;;7.10;2.10;;;5.00;99.90;;;;;;4897975;29;20457;-79
2022/01/20 11:34:23;;;;;;;8.18;2.15;;;5.00;99.90;;;;;;4897437;29;20406;-79
2022/01/20 11:36:52;;;;;;;7.60;2.08;;;5.00;99.90;;;;;;4897867;29;20490;-81
2022/01/20 11:39:25;;;;;;;6.82;2.00;;;5.00;99.90;;;;;;4897702;29;20135;-78
2022/01/20 11:41:53;;;;;;;6.88;1.90;;;5.00;99.90;;;;;;4897893;29;20080;-79
2022/01/20 11:44:26;;;;;;;7.22;2.10;;;4.90;99.90;;;;;;4897595;29;20433;-80
2022/01/20 11:47:05;;;;;;;8.13;2.08;;;4.90;99.90;;;;;;4878580;29;20053;-78
2022/01/20 11:49:37;;;;;;;6.45;2.00;;;4.80;99.90;;;;;;4879066;29;20145;-79
2022/01/20 11:52:06;;;;;;;7.95;1.98;;;4.80;99.90;;;;;;4888980;29;20116;-79
2022/01/20 11:54:37;;;;;;;6.75;2.10;;;4.70;99.90;;;;;;4897913;29;20483;-81
2022/01/20 11:57:10;;;;;;;8.23;2.35;;;4.60;99.90;;;;;;4897847;29;20136;-79
2022/01/20 11:59:41;;;;;;;5.95;2.13;;;4.60;99.90;;;;;;4897336;29;20060;-79
2022/01/20 12:02:08;;;;;;;10.30;2.60;;;4.50;99.90;;;;;;4897832;29;20120;-79
2022/01/20 12:04:38;;;;;;;8.68;2.67;;;4.50;99.90;;;;;;4897512;29;20758;-78
2022/01/20 12:07:09;;;;;;;8.60;2.50;;;4.50;99.90;;;;;;4897627;29;20080;-79
2022/01/20 12:09:38;;;;;;;6.22;2.50;;;4.50;99.90;;;;;;4897528;29;20048;-79
2022/01/20 12:12:19;;;;;;;7.68;2.17;;;4.50;99.90;;;;;;4897199;29;20529;-79
2022/01/20 12:14:46;;;;;;;6.70;2.22;;;4.50;99.90;;;;;;4878720;29;20522;-79
2022/01/20 12:17:15;;;;;;;11.85;2.88;;;4.60;99.90;;;;;;4878825;29;20141;-78
2022/01/20 12:19:43;;;;;;;8.43;2.40;;;4.70;99.90;;;;;;4878690;29;20053;-80
2022/01/20 12:22:11;;;;;;;11.50;2.30;;;4.80;99.90;;;;;;4879232;29;20049;-80
2022/01/20 12:24:38;;;;;;;10.02;2.20;;;4.80;99.90;;;;;;4878341;29;20148;-80
2022/01/20 12:27:16;;;;;;;8.43;2.20;;;4.90;99.90;;;;;;4879017;29;20488;-79
2022/01/20 12:29:43;;;;;;;9.50;2.30;;;5.00;99.90;;;;;;4879810;29;20056;-79
2022/01/20 12:32:16;;;;;;;5.60;2.15;;;5.10;99.90;;;;;;4896837;29;20104;-80
2022/01/20 12:34:44;;;;;;;14.68;2.38;;;5.20;99.90;;;;;;4897636;29;20053;-81
2022/01/20 12:37:13;;;;;;;4.38;1.63;;;5.20;99.90;;;;;;4897356;29;20254;-80
2022/01/20 12:39:41;;;;;;;7.75;1.90;;;5.30;99.90;;;;;;4900411;29;20112;-79
2022/01/20 12:42:11;;;;;;;6.50;2.00;;;5.30;99.90;;;;;;4900952;29;20135;-80
2022/01/20 12:44:47;;;;;;;7.47;2.00;;;5.30;99.90;;;;;;4901020;29;20555;-80
2022/01/20 12:47:15;;;;;;;5.28;1.92;;;5.30;99.90;;;;;;4900863;29;20574;-81
2022/01/20 12:49:42;;;;;;;5.72;1.98;;;5.30;99.90;;;;;;4900933;29;20136;-79
2022/01/20 12:52:12;;;;;;;6.90;2.10;;;5.30;99.90;;;;;;4900278;29;20136;-79
2022/01/20 12:54:39;;;;;;;5.78;1.70;;;5.30;99.90;;;;;;4900786;29;20056;-78
2022/01/20 12:57:11;;;;;;;5.13;1.80;;;5.20;99.90;;;;;;4900663;29;20116;-81
2022/01/20 12:59:42;;;;;;;5.07;1.73;;;5.10;99.90;;;;;;4900818;29;20125;-79
2022/01/20 13:02:12;;;;;;;6.25;2.08;;;5.00;99.90;;;;;;4900540;29;20574;-82
2022/01/20 13:04:41;;;;;;;5.25;2.10;;;4.90;99.90;;;;;;4900152;29;20056;-82
2022/01/20 13:07:13;;;;;;;6.25;2.30;;;4.80;99.90;;;;;;4900505;29;20059;-81
2022/01/20 13:09:44;;;;;;;5.68;2.40;;;4.80;99.90;;;;;;4900500;29;20056;-79
2022/01/20 13:12:14;;;;;;;6.28;2.15;;;4.70;99.90;;;;;;4900655;29;20049;-80
2022/01/20 13:14:44;;;;;;;3.13;1.55;;;4.60;99.90;;;;;;4900339;29;20549;-79
2022/01/20 13:17:14;;;;;;;4.25;1.50;;;4.60;99.90;;;;;;4900234;29;20110;-80
2022/01/20 13:19:45;;;;;;;4.15;1.30;;;4.50;99.90;;;;;;4900278;29;20131;-80
2022/01/20 13:22:23;;;;;;;7.07;1.20;;;4.30;99.90;;;;;;4899906;29;20056;-79
2022/01/20 13:24:51;;;;;;;7.05;1.30;;;4.10;99.90;;;;;;4899859;29;20052;-79
2022/01/20 13:27:19;;;;;;;5.05;1.27;;;4.00;99.90;;;;;;4899832;29;20052;-79
2022/01/20 13:29:49;;;;;;;5.35;1.80;;;3.90;99.90;;;;;;4899851;29;20084;-79
2022/01/20 13:32:18;;;;;;;5.10;1.30;;;3.80;99.90;;;;;;4900063;29;20100;-81
2022/01/20 13:34:59;;;;;;;6.70;1.15;;;3.70;99.90;;;;;;4899955;29;20127;-80
2022/01/20 13:37:27;;;;;;;6.80;1.65;;;3.50;99.90;;;;;;4900163;29;20052;-80
2022/01/20 13:39:58;;;;;;;5.75;1.55;;;3.40;99.90;;;;;;4899794;29;20044;-81
2022/01/20 13:42:37;;;;;;;6.30;1.88;;;3.20;99.90;;;;;;4899973;29;20097;-79
2022/01/20 13:45:14;;;;;;;6.38;1.77;;;3.10;99.90;;;;;;4900264;29;20501;-80
2022/01/20 13:47:54;;;;;;;6.95;1.70;;;2.90;99.90;;;;;;4900569;29;20053;-79
2022/01/20 13:50:25;;;;;;;6.75;1.85;;;2.80;99.90;;;;;;4900392;29;20309;-81
2022/01/20 13:52:53;;;;;;;7.82;2.00;;;2.70;99.90;;;;;;4900429;29;20131;-81
2022/01/20 13:55:27;;;;;;;4.03;1.40;;;2.60;99.90;;;;;;4900290;29;20139;-80
2022/01/20 13:57:55;;;;;;;7.90;1.80;;;2.60;99.90;;;;;;4900395;29;20061;-80
2022/01/20 14:00:24;;;;;;;9.23;2.28;;;2.40;99.90;;;;;;4899760;29;20384;-79
2022/01/20 14:02:52;;;;;;;6.80;2.38;;;2.40;99.90;;;;;;4883468;29;20049;-79
2022/01/20 14:05:21;;;;;;;22.98;7.85;;;2.40;99.90;;;;;;4899869;29;20136;-80
2022/01/20 14:07:48;;;;;;;11.23;3.55;;;2.40;99.90;;;;;;4899891;29;20144;-80
2022/01/20 14:10:16;;;;;;;7.15;1.77;;;2.30;99.90;;;;;;4899232;29;20418;-79
2022/01/20 14:12:45;;;;;;;7.45;2.13;;;2.30;99.90;;;;;;4900028;29;20132;-80
2022/01/20 14:15:12;;;;;;;7.75;2.30;;;2.40;99.90;;;;;;4901538;29;20586;-80
2022/01/20 14:17:40;;;;;;;7.85;1.85;;;2.40;99.90;;;;;;4882650;29;20084;-80
2022/01/20 14:20:12;;;;;;;7.15;2.20;;;2.40;99.90;;;;;;4899906;29;20132;-80
2022/01/20 14:22:40;;;;;;;8.82;2.00;;;2.30;99.90;;;;;;4899406;29;20602;-80
2022/01/20 14:25:10;;;;;;;9.45;2.67;;;2.40;99.90;;;;;;4899981;29;20087;-79
2022/01/20 14:27:38;;;;;;;8.88;2.30;;;2.40;99.90;;;;;;4899912;29;20053;-79
2022/01/20 14:30:11;;;;;;;7.25;2.20;;;2.40;99.90;;;;;;4900031;29;20111;-80
2022/01/20 14:32:38;;;;;;;6.03;2.25;;;2.40;99.90;;;;;;4900597;29;20053;-80
2022/01/20 14:35:07;;;;;;;6.63;2.08;;;2.40;99.90;;;;;;4899522;29;20144;-80
2022/01/20 14:37:37;;;;;;;8.57;2.47;;;2.30;99.90;;;;;;4900347;29;20104;-79
2022/01/20 14:40:07;;;;;;;5.60;2.00;;;2.30;99.90;;;;;;4883809;29;20059;-79
2022/01/20 14:42:34;;;;;;;5.00;2.00;;;2.30;99.90;;;;;;4899027;29;20132;-80
2022/01/20 14:45:02;;;;;;;9.48;2.38;;;2.40;99.90;;;;;;4899120;29;20112;-79
2022/01/20 14:47:31;;;;;;;6.13;2.20;;;2.40;99.90;;;;;;4898909;29;20063;-80
2022/01/20 14:49:59;;;;;;;8.25;2.38;;;2.50;99.90;;;;;;4898317;29;20057;-79
2022/01/20 14:52:26;;;;;;;5.70;2.50;;;2.40;99.90;;;;;;4898690;29;20084;-80
2022/01/20 14:54:53;;;;;;;7.00;1.98;;;2.50;99.90;;;;;;4898659;29;20133;-81
2022/01/20 14:57:21;;;;;;;6.47;2.08;;;2.50;99.90;;;;;;4898599;29;20139;-81
2022/01/20 14:59:49;;;;;;;6.68;2.20;;;2.50;99.90;;;;;;4898422;29;20574;-82
2022/01/20 15:02:16;;;;;;;7.28;2.38;;;2.50;99.90;;;;;;4897839;29;20057;-81
2022/01/20 15:04:47;;;;;;;6.03;2.17;;;2.50;99.90;;;;;;4898710;29;20558;-81
2022/01/20 15:07:15;;;;;;;9.25;3.00;;;2.50;99.90;;;;;;4899213;29;20217;-81
2022/01/20 15:09:42;;;;;;;10.23;3.60;;;2.50;99.90;;;;;;4898532;29;20083;-81
2022/01/20 15:12:10;;;;;;;11.52;3.30;;;2.60;99.90;;;;;;4898398;29;20140;-81
2022/01/20 15:14:38;;;;;;;10.60;2.83;;;2.60;99.90;;;;;;4897555;29;20139;-81
2022/01/20 15:17:05;;;;;;;11.95;4.07;;;2.60;99.90;;;;;;4898443;29;20141;-81
2022/01/20 15:19:33;;;;;;;17.17;5.80;;;2.60;99.90;;;;;;4898470;29;20140;-81
2022/01/20 15:22:02;;;;;;;6.82;2.70;;;2.60;99.90;;;;;;4898207;29;20057;-80
2022/01/20 15:24:32;;;;;;;10.13;2.50;;;2.60;99.90;;;;;;4897895;29;20179;-81
2022/01/20 15:26:59;;;;;;;8.98;2.63;;;2.60;99.90;;;;;;4898224;29;20415;-80
2022/01/20 15:29:26;;;;;;;7.35;2.60;;;2.60;99.90;;;;;;4897351;29;20135;-79
2022/01/20 15:31:54;;;;;;;7.90;2.35;;;2.60;99.90;;;;;;4898058;29;20071;-79
2022/01/20 15:34:21;;;;;;;9.13;3.08;;;2.70;99.90;;;;;;4898424;29;20049;-80
2022/01/20 15:36:48;;;;;;;8.20;2.80;;;2.70;99.90;;;;;;4898009;29;20147;-79
2022/01/20 15:39:17;;;;;;;8.43;2.70;;;2.70;99.90;;;;;;4898281;29;20045;-79
2022/01/20 15:41:46;;;;;;;9.02;2.63;;;2.70;99.90;;;;;;4897112;29;20051;-79
2022/01/20 15:44:13;;;;;;;7.78;2.80;;;2.70;99.90;;;;;;4898226;29;20141;-80
2022/01/20 15:46:40;;;;;;;9.07;2.88;;;2.70;99.90;;;;;;4898497;29;20144;-79
2022/01/20 15:49:08;;;;;;;9.02;2.63;;;2.70;99.90;;;;;;4898621;29;20139;-79
2022/01/20 15:51:37;;;;;;;9.10;2.42;;;2.70;99.90;;;;;;4896736;29;20518;-80
2022/01/20 15:54:05;;;;;;;7.68;2.60;;;2.80;99.90;;;;;;4896384;29;20139;-78
2022/01/20 15:56:35;;;;;;;10.15;2.40;;;2.80;99.90;;;;;;4890350;29;20067;-79
2022/01/20 15:59:04;;;;;;;7.90;2.40;;;2.80;99.90;;;;;;4896491;29;20059;-79
2022/01/20 16:01:33;;;;;;;9.45;2.83;;;2.80;99.90;;;;;;4890168;29;20511;-81
2022/01/20 16:04:00;;;;;;;8.35;2.40;;;2.70;99.90;;;;;;4897257;29;20491;-78
2022/01/20 16:06:27;;;;;;;9.02;2.78;;;2.70;99.90;;;;;;4898095;29;20131;-79
2022/01/20 16:08:54;;;;;;;10.68;2.60;;;2.70;99.90;;;;;;4897343;29;20049;-79
2022/01/20 16:11:21;;;;;;;7.25;2.10;;;2.70;99.90;;;;;;4897332;29;20140;-80
2022/01/20 16:13:50;;;;;;;11.20;3.15;;;2.70;99.90;;;;;;4900931;29;20112;-79
2022/01/20 16:16:17;;;;;;;8.07;2.42;;;2.70;99.90;;;;;;4900603;29;20151;-79
2022/01/20 16:18:44;;;;;;;9.00;2.58;;;2.70;99.90;;;;;;4901173;29;20157;-78
2022/01/20 16:21:16;;;;;;;10.80;2.55;;;2.70;99.90;;;;;;4899934;29;20105;-79
2022/01/20 16:23:45;;;;;;;8.82;2.33;;;2.70;99.90;;;;;;4900789;29;20157;-79
2022/01/20 16:26:12;;;;;;;7.72;2.28;;;2.60;99.90;;;;;;4900711;29;20048;-80
2022/01/20 16:28:39;;;;;;;9.40;2.47;;;2.60;99.90;;;;;;4901407;29;20063;-79
2022/01/20 16:31:09;;;;;;;9.52;2.50;;;2.60;99.90;;;;;;4901640;29;20127;-80
2022/01/20 16:33:36;;;;;;;8.48;2.90;;;2.50;99.90;;;;;;4900835;29;20135;-79
2022/01/20 16:36:04;;;;;;;9.13;2.63;;;2.50;99.90;;;;;;4901262;29;20056;-79
2022/01/20 16:38:31;;;;;;;9.13;2.33;;;2.50;99.90;;;;;;4901509;29;20136;-80
2022/01/20 16:41:01;;;;;;;8.77;2.28;;;2.50;99.90;;;;;;4901209;29;20585;-79
2022/01/20 16:43:30;;;;;;;8.57;2.03;;;2.50;99.90;;;;;;4904806;29;20047;-80
2022/01/20 16:45:59;;;;;;;7.00;2.40;;;2.40;99.90;;;;;;4901003;29;20049;-78
2022/01/20 16:48:27;;;;;;;10.35;2.42;;;2.40;99.90;;;;;;4900827;29;20127;-79
2022/01/20 16:50:58;;;;;;;6.38;1.92;;;2.50;99.90;;;;;;4900962;29;20048;-81
2022/01/20 16:53:26;;;;;;;9.80;3.45;;;2.40;99.90;;;;;;4900996;29;20076;-79
2022/01/20 16:55:54;;;;;;;17.38;5.88;;;2.40;99.90;;;;;;4900911;29;20455;-80
2022/01/20 16:58:22;;;;;;;7.03;2.28;;;2.40;99.90;;;;;;4900989;29;20516;-79
2022/01/20 17:00:49;;;;;;;9.82;2.45;;;2.40;99.90;;;;;;4904054;29;20566;-79
2022/01/20 17:03:19;;;;;;;6.50;2.00;;;2.30;99.90;;;;;;4900190;29;20052;-80
2022/01/20 17:05:51;;;;;;;7.65;2.30;;;2.40;99.90;;;;;;4900205;29;20052;-80
2022/01/20 17:08:19;;;;;;;9.80;2.33;;;2.40;99.90;;;;;;4900055;29;20132;-79
2022/01/20 17:10:46;;;;;;;8.10;2.20;;;2.30;99.90;;;;;;4900060;29;20163;-80
2022/01/20 17:13:13;;;;;;;6.30;2.17;;;2.30;99.90;;;;;;4882734;29;20135;-79
2022/01/20 17:15:41;;;;;;;6.70;2.17;;;2.30;99.90;;;;;;4899445;29;20048;-80
2022/01/20 17:18:12;;;;;;;7.72;2.40;;;2.30;99.90;;;;;;4899907;29;20053;-80
2022/01/20 17:20:40;;;;;;;5.55;2.05;;;2.30;99.90;;;;;;4900241;29;20063;-80
2022/01/20 17:23:08;;;;;;;6.95;1.95;;;2.20;99.90;;;;;;4898749;29;20139;-79
2022/01/20 17:25:36;;;;;;;7.28;2.08;;;2.20;99.90;;;;;;4899292;29;20136;-78
2022/01/20 17:28:04;;;;;;;6.80;2.17;;;2.20;99.90;;;;;;4899290;29;20508;-79
2022/01/20 17:30:32;;;;;;;7.07;1.60;;;2.20;99.90;;;;;;4893173;29;20155;-79
2022/01/20 17:32:59;;;;;;;8.63;1.80;;;2.20;99.90;;;;;;4884038;29;20131;-79
2022/01/20 17:35:26;;;;;;;6.38;1.83;;;2.20;99.90;;;;;;4899371;29;20072;-79
2022/01/20 17:37:54;;;;;;;4.60;1.65;;;2.20;99.90;;;;;;4899633;29;20048;-80
2022/01/20 17:40:23;;;;;;;6.15;1.77;;;2.30;99.90;;;;;;4898716;29;20143;-79
2022/01/20 17:42:50;;;;;;;6.05;1.90;;;2.20;99.90;;;;;;4899012;29;20067;-78
2022/01/20 17:45:17;;;;;;;5.90;1.60;;;2.20;99.90;;;;;;4899136;29;20680;-79
2022/01/20 17:47:44;;;;;;;12.93;4.55;;;2.20;99.90;;;;;;4899556;29;20048;-79
2022/01/20 17:50:12;;;;;;;12.55;4.97;;;2.20;99.90;;;;;;4899073;29;20132;-79
2022/01/20 17:52:40;;;;;;;8.43;3.10;;;2.20;99.90;;;;;;4899154;29;20623;-81
2022/01/20 17:55:11;;;;;;;7.85;2.38;;;2.20;99.90;;;;;;4898874;29;20063;-79
2022/01/20 17:57:42;;;;;;;5.13;2.00;;;2.20;99.90;;;;;;4899369;29;20052;-79
2022/01/20 18:00:12;;;;;;;5.68;2.28;;;2.20;99.90;;;;;;4899349;29;20052;-80
2022/01/20 18:02:40;;;;;;;5.20;1.92;;;2.20;99.90;;;;;;4893134;29;20082;-80
2022/01/20 18:05:09;;;;;;;6.43;2.50;;;2.20;99.80;;;;;;4898320;29;20483;-80
2022/01/20 18:07:36;;;;;;;7.90;2.50;;;2.20;99.60;;;;;;4899443;29;20080;-80
2022/01/20 18:10:05;;;;;;;8.57;2.90;;;2.20;99.70;;;;;;4899244;29;20137;-80
2022/01/20 18:12:33;;;;;;;7.75;2.00;;;2.10;99.90;;;;;;4898329;29;20066;-79
2022/01/20 18:15:01;;;;;;;8.82;2.00;;;2.10;99.70;;;;;;4899063;29;20147;-79
2022/01/20 18:17:28;;;;;;;6.30;2.00;;;2.10;99.60;;;;;;4898457;29;20131;-79
2022/01/20 18:19:57;;;;;;;5.68;1.80;;;2.10;99.70;;;;;;4898543;29;20040;-79
2022/01/20 18:22:24;;;;;;;8.55;2.28;;;2.20;99.60;;;;;;4898609;29;20132;-80